createdAt,value
2018-05-29T00:01:26.826Z,98009.05
2018-05-29T00:03:55.089Z,98000.64
2018-05-29T00:06:23.341Z,97985.34
2018-05-29T00:08:51.608Z,97980.61
2018-05-29T00:11:19.856Z,97983.17
2018-05-29T00:13:48.113Z,97993.88
2018-05-29T00:16:17.139Z,97991.34
2018-05-29T00:18:45.383Z,97988.21
2018-05-29T00:21:14.398Z,97985.58
2018-05-29T00:23:42.660Z,97987.84
2018-05-29T00:26:11.680Z,97989.25
2018-05-29T00:28:39.939Z,97988.75
2018-05-29T00:31:08.202Z,97992.67
2018-05-29T00:33:37.219Z,97988.58
2018-05-29T00:36:05.474Z,97978.89
2018-05-29T00:38:33.721Z,97976.50
2018-05-29T00:41:01.981Z,97978.05
2018-05-29T00:43:30.235Z,97985.12
2018-05-29T00:45:58.494Z,97984.39
2018-05-29T00:48:26.743Z,97979.39
2018-05-29T00:50:55.759Z,97974.20
2018-05-29T00:53:24.008Z,97975.05
2018-05-29T00:55:53.021Z,97974.61
2018-05-29T00:58:21.265Z,97976.97
2018-05-29T01:00:50.289Z,97974.08
2018-05-29T01:03:18.537Z,97969.38
2018-05-29T01:05:47.554Z,97975.09
2018-05-29T01:08:15.812Z,97974.53
2018-05-29T01:10:44.816Z,97973.16
2018-05-29T01:13:13.078Z,97968.33
2018-05-29T01:15:42.085Z,97962.77
2018-05-29T01:18:10.345Z,97961.20
2018-05-29T01:20:39.357Z,97968.19
2018-05-29T01:23:07.611Z,97964.52
2018-05-29T01:25:36.625Z,97965.37
2018-05-29T01:28:04.887Z,97965.66
2018-05-29T01:30:33.892Z,97967.44
2018-05-29T01:33:02.157Z,97960.82
2018-05-29T01:35:31.181Z,97956.55
2018-05-29T01:37:59.438Z,97954.52
2018-05-29T01:40:27.692Z,97951.04
2018-05-29T01:42:56.713Z,97948.56
2018-05-29T01:45:24.974Z,97948.25
2018-05-29T01:47:53.989Z,97952.33
2018-05-29T01:50:22.243Z,97958.12
2018-05-29T01:52:51.257Z,97952.48
2018-05-29T01:55:19.505Z,97952.37
2018-05-29T01:57:48.532Z,97955.23
2018-05-29T02:00:16.790Z,97941.22
2018-05-29T02:02:45.046Z,97955.23
2018-05-29T02:05:14.073Z,97948.94
2018-05-29T02:07:42.326Z,97952.14
2018-05-29T02:10:11.345Z,97953.16
2018-05-29T02:12:39.596Z,97963.61
2018-05-29T02:15:08.624Z,97962.00
2018-05-29T02:17:36.869Z,97965.57
2018-05-29T02:20:05.888Z,97956.02
2018-05-29T02:22:34.139Z,97946.88
2018-05-29T02:25:05.987Z,97948.91
2018-05-29T02:27:34.998Z,97948.30
2018-05-29T02:30:03.260Z,97949.91
2018-05-29T02:32:32.283Z,97949.13
2018-05-29T02:35:00.533Z,97948.54
2018-05-29T02:37:28.780Z,97952.11
2018-05-29T02:39:57.041Z,97951.31
2018-05-29T02:42:25.289Z,97957.30
2018-05-29T02:44:54.212Z,97958.13
2018-05-29T02:47:22.471Z,97957.50
2018-05-29T02:49:50.722Z,97962.22
2018-05-29T02:52:18.972Z,97958.75
2018-05-29T02:54:47.976Z,97951.33
2018-05-29T02:57:16.238Z,97950.75
2018-05-29T02:59:45.260Z,97956.50
2018-05-29T03:02:16.119Z,97958.12
2018-05-29T03:04:45.353Z,97961.06
2018-05-29T03:07:13.612Z,97960.27
2018-05-29T03:09:41.862Z,97962.88
2018-05-29T03:12:10.118Z,97961.47
2018-05-29T03:14:38.375Z,97957.73
2018-05-29T03:17:07.399Z,97960.84
2018-05-29T03:19:35.651Z,97956.09
2018-05-29T03:22:03.916Z,97959.78
2018-05-29T03:24:32.933Z,97958.98
2018-05-29T03:27:01.885Z,97961.80
2018-05-29T03:29:30.133Z,97956.52
2018-05-29T03:31:58.389Z,97960.96
2018-05-29T03:34:26.656Z,97963.39
2018-05-29T03:36:54.892Z,97965.63
2018-05-29T03:39:23.911Z,97962.95
2018-05-29T03:41:52.169Z,97961.22
2018-05-29T03:44:21.180Z,97964.92
2018-05-29T03:46:49.442Z,97969.11
2018-05-29T03:49:18.464Z,97963.59
2018-05-29T03:51:46.718Z,97954.35
2018-05-29T03:54:14.977Z,97958.75
2018-05-29T03:56:44.636Z,97955.73
2018-05-29T03:59:12.898Z,97953.47
2018-05-29T04:01:41.149Z,97945.78
2018-05-29T04:04:09.405Z,97949.38
2018-05-29T04:06:38.423Z,97957.37
2018-05-29T04:09:06.681Z,97955.45
2018-05-29T04:11:35.693Z,97953.02
2018-05-29T04:14:04.829Z,97952.72
2018-05-29T04:16:33.074Z,97952.79
2018-05-29T04:19:01.330Z,97956.56
2018-05-29T04:21:31.879Z,97950.41
2018-05-29T04:24:00.126Z,97952.16
2018-05-29T04:26:29.190Z,97950.04
2018-05-29T04:28:57.439Z,97954.84
2018-05-29T04:31:25.689Z,97951.13
2018-05-29T04:33:53.946Z,97953.69
2018-05-29T04:36:22.968Z,97955.52
2018-05-29T04:38:51.223Z,97962.46
2018-05-29T04:41:20.246Z,97966.94
2018-05-29T04:43:48.505Z,97967.27
2018-05-29T04:46:16.757Z,97959.06
2018-05-29T04:48:45.778Z,97962.12
2018-05-29T04:51:14.053Z,97971.49
2018-05-29T04:53:42.541Z,97969.30
2018-05-29T04:56:10.793Z,97963.55
2018-05-29T04:58:39.044Z,97958.82
2018-05-29T05:01:07.301Z,97957.26
2018-05-29T05:03:35.553Z,97958.45
2018-05-29T05:06:03.809Z,97958.78
2018-05-29T05:08:32.055Z,97958.57
2018-05-29T05:11:01.085Z,97950.37
2018-05-29T05:13:29.340Z,97943.09
2018-05-29T05:15:57.597Z,97943.95
2018-05-29T05:18:26.614Z,97945.61
2018-05-29T05:20:54.878Z,97940.27
2018-05-29T05:23:23.889Z,97945.09
2018-05-29T05:25:52.185Z,97951.73
2018-05-29T05:28:20.435Z,97949.98
2018-05-29T05:30:49.452Z,97953.84
2018-05-29T05:33:17.814Z,97956.29
2018-05-29T05:35:46.067Z,97961.25
2018-05-29T05:38:15.078Z,97960.71
2018-05-29T05:40:43.338Z,97960.34
2018-05-29T05:43:12.361Z,97957.98
2018-05-29T05:45:40.619Z,97953.53
2018-05-29T05:48:09.823Z,97948.94
2018-05-29T05:50:38.080Z,97945.82
2018-05-29T05:53:07.093Z,97949.47
2018-05-29T05:55:35.356Z,97954.06
2018-05-29T05:58:03.615Z,97946.55
2018-05-29T06:00:32.641Z,97945.98
2018-05-29T06:03:00.900Z,97951.00
2018-05-29T06:05:30.168Z,97945.83
2018-05-29T06:07:58.426Z,97951.30
2018-05-29T06:10:26.668Z,97957.91
2018-05-29T06:12:54.923Z,97949.41
2018-05-29T06:15:23.941Z,97955.44
2018-05-29T06:17:52.197Z,97961.57
2018-05-29T06:20:20.440Z,97959.41
2018-05-29T06:22:48.700Z,97954.26
2018-05-29T06:25:16.948Z,97955.70
2018-05-29T06:27:45.214Z,97959.55
2018-05-29T06:30:13.457Z,97957.25
2018-05-29T06:32:42.486Z,97949.55
2018-05-29T06:35:11.650Z,97956.39
2018-05-29T06:37:40.676Z,97952.20
2018-05-29T06:40:08.918Z,97947.50
2018-05-29T06:42:37.939Z,97949.82
2018-05-29T06:45:06.241Z,97950.91
2018-05-29T06:47:34.457Z,97955.12
2018-05-29T06:50:03.483Z,97948.75
2018-05-29T06:52:31.757Z,97951.97
2018-05-29T06:55:00.750Z,97951.74
2018-05-29T06:57:29.009Z,97951.53
2018-05-29T06:59:58.033Z,97946.73
2018-05-29T07:02:26.280Z,97952.09
2018-05-29T07:04:54.546Z,97949.45
2018-05-29T07:07:23.556Z,97946.51
2018-05-29T07:09:51.816Z,97948.73
2018-05-29T07:12:20.826Z,97951.77
2018-05-29T07:14:50.859Z,97948.69
2018-05-29T07:17:19.105Z,97952.47
2018-05-29T07:19:48.142Z,97939.91
2018-05-29T07:22:16.393Z,97940.78
2018-05-29T07:24:44.709Z,97937.19
2018-05-29T07:27:13.705Z,97940.55
2018-05-29T07:29:42.589Z,97932.85
2018-05-29T07:32:10.842Z,97932.34
2018-05-29T07:34:39.113Z,97922.89
2018-05-29T07:37:07.357Z,97925.02
2018-05-29T07:39:36.378Z,97920.89
2018-05-29T07:42:04.624Z,97926.08
2018-05-29T07:44:33.649Z,97925.05
2018-05-29T07:47:01.905Z,97916.89
2018-05-29T07:49:30.152Z,97923.35
2018-05-29T07:51:59.853Z,97917.02
2018-05-29T07:54:28.096Z,97917.16
2018-05-29T07:56:56.363Z,97918.77
2018-05-29T07:59:24.612Z,97919.31
2018-05-29T08:01:53.641Z,97918.22
2018-05-29T08:04:21.885Z,97914.38
2018-05-29T08:06:50.140Z,97920.44
2018-05-29T08:09:19.157Z,97920.10
2018-05-29T08:11:47.413Z,97924.34
2018-05-29T08:14:16.424Z,97922.14
2018-05-29T08:16:44.674Z,97931.05
2018-05-29T08:19:13.681Z,97926.36
2018-05-29T08:21:42.700Z,97926.66
2018-05-29T08:24:10.950Z,97926.80
2018-05-29T08:26:39.973Z,97922.22
2018-05-29T08:29:08.217Z,97922.50
2018-05-29T08:31:37.236Z,97926.70
2018-05-29T08:34:05.489Z,97920.92
2018-05-29T08:36:34.593Z,97928.75
2018-05-29T08:39:03.609Z,97921.47
2018-05-29T08:41:31.865Z,97917.26
2018-05-29T08:44:00.126Z,97918.09
2018-05-29T08:46:29.142Z,97915.27
2018-05-29T08:48:57.402Z,97920.86
2018-05-29T08:51:25.646Z,97919.53
2018-05-29T08:53:53.900Z,97921.70
2018-05-29T08:56:22.157Z,97919.36
2018-05-29T08:58:50.408Z,97918.20
2018-05-29T09:01:18.653Z,97914.53
2018-05-29T09:03:46.919Z,97915.73
2018-05-29T09:06:15.169Z,97914.61
2018-05-29T09:08:43.429Z,97910.23
2018-05-29T09:11:11.685Z,97909.30
2018-05-29T09:13:39.936Z,97916.38
2018-05-29T09:16:08.957Z,97913.77
2018-05-29T09:18:39.934Z,97914.08
2018-05-29T09:21:08.184Z,97912.58
2018-05-29T09:23:37.634Z,97910.56
2018-05-29T09:26:05.895Z,97905.26
2018-05-29T09:28:34.148Z,97909.98
2018-05-29T09:31:02.414Z,97909.75
2018-05-29T09:33:30.654Z,97906.92
2018-05-29T09:35:59.675Z,97909.57
2018-05-29T09:38:27.917Z,97911.38
2018-05-29T09:41:01.530Z,97911.25
2018-05-29T09:43:30.540Z,97907.42
2018-05-29T09:45:58.851Z,97903.47
2018-05-29T09:48:27.808Z,97904.02
2018-05-29T09:50:56.060Z,97902.30
2018-05-29T09:53:25.068Z,97902.77
2018-05-29T09:55:53.325Z,97897.22
2018-05-29T09:58:22.343Z,97892.10
2018-05-29T10:00:50.606Z,97888.17
2018-05-29T10:03:19.621Z,97893.94
2018-05-29T10:05:47.876Z,97891.70
2018-05-29T10:08:16.125Z,97890.66
2018-05-29T10:10:44.392Z,97886.25
2018-05-29T10:13:12.648Z,97881.88
2018-05-29T10:15:40.896Z,97875.45
2018-05-29T10:18:09.148Z,97880.09
2018-05-29T10:20:38.168Z,97870.19
2018-05-29T10:23:07.116Z,97866.16
2018-05-29T10:25:35.363Z,97862.06
2018-05-29T10:28:03.629Z,97862.45
2018-05-29T10:30:31.873Z,97864.16
2018-05-29T10:33:00.132Z,97863.11
2018-05-29T10:35:29.194Z,97864.29
2018-05-29T10:37:57.456Z,97869.56
2018-05-29T10:40:25.714Z,97865.55
2018-05-29T10:42:53.975Z,97865.00
2018-05-29T10:45:22.244Z,97871.91
2018-05-29T10:47:50.547Z,97872.00
2018-05-29T10:50:18.813Z,97867.68
2018-05-29T10:52:47.066Z,97867.09
2018-05-29T10:55:16.098Z,97869.55
2018-05-29T10:57:44.367Z,97870.36
2018-05-29T11:00:12.623Z,97866.30
2018-05-29T11:02:40.910Z,97861.55
2018-05-29T11:05:09.171Z,97859.59
2018-05-29T11:07:37.420Z,97865.75
2018-05-29T11:10:06.443Z,97866.09
2018-05-29T11:12:34.687Z,97856.14
2018-05-29T11:15:03.304Z,97864.69
2018-05-29T11:17:31.598Z,97863.50
2018-05-29T11:19:59.871Z,97866.13
2018-05-29T11:22:28.122Z,97855.20
2018-05-29T11:24:56.378Z,97850.64
2018-05-29T11:27:25.416Z,97849.95
2018-05-29T11:29:53.700Z,97844.43
2018-05-29T11:32:21.974Z,97842.67
2018-05-29T11:34:50.239Z,97840.91
2018-05-29T11:37:18.486Z,97842.90
2018-05-29T11:39:47.547Z,97838.06
2018-05-29T11:42:15.828Z,97830.77
2018-05-29T11:44:44.090Z,97824.78
2018-05-29T11:47:12.354Z,97826.80
2018-05-29T11:49:40.620Z,97822.00
2018-05-29T11:52:08.874Z,97833.50
2018-05-29T11:54:37.138Z,97829.44
2018-05-29T11:57:06.158Z,97830.58
2018-05-29T11:59:34.408Z,97827.95
2018-05-29T12:02:02.687Z,97822.66
2018-05-29T12:04:30.935Z,97827.43
2018-05-29T12:06:59.197Z,97825.14
2018-05-29T12:09:27.451Z,97824.06
2018-05-29T12:12:14.581Z,97824.45
2018-05-29T12:14:42.837Z,97811.88
2018-05-29T12:17:11.099Z,97804.11
2018-05-29T12:19:39.359Z,97808.28
2018-05-29T12:22:07.614Z,97808.80
2018-05-29T12:24:36.628Z,97808.01
2018-05-29T12:27:04.885Z,97803.64
2018-05-29T12:29:33.917Z,97805.08
2018-05-29T12:32:02.275Z,97807.61
2018-05-29T12:34:30.580Z,97810.50
2018-05-29T12:36:58.847Z,97818.59
2018-05-29T12:39:27.136Z,97820.63
2018-05-29T12:41:55.445Z,97821.81
2018-05-29T12:44:23.719Z,97817.50
2018-05-29T12:46:52.087Z,97822.56
2018-05-29T12:49:20.349Z,97825.25
2018-05-29T12:51:48.627Z,97814.50
2018-05-29T12:54:16.872Z,97811.32
2018-05-29T12:56:45.124Z,97811.15
2018-05-29T12:59:14.154Z,97811.38
2018-05-29T13:01:42.443Z,97801.22
2018-05-29T13:04:10.710Z,97807.02
2018-05-29T13:06:38.971Z,97800.38
2018-05-29T13:09:07.221Z,97802.52
2018-05-29T13:11:36.244Z,97791.55
2018-05-29T13:14:04.499Z,97795.95
2018-05-29T13:16:32.741Z,97784.77
2018-05-29T13:19:00.999Z,97777.55
2018-05-29T13:21:29.245Z,97776.27
2018-05-29T13:23:57.496Z,97771.94
2018-05-29T13:26:25.750Z,97773.79
2018-05-29T13:28:54.007Z,97774.70
2018-05-29T13:31:22.254Z,97764.30
2018-05-29T13:33:50.517Z,97760.97
2018-05-29T13:36:18.764Z,97766.72
2018-05-29T13:38:47.788Z,97766.28
2018-05-29T13:41:16.033Z,97760.77
2018-05-29T13:43:45.056Z,97757.55
2018-05-29T13:46:13.309Z,97754.95
2018-05-29T13:48:42.578Z,97758.78
2018-05-29T13:51:11.794Z,97744.45
2018-05-29T13:53:40.879Z,97740.38
2018-05-29T13:56:09.959Z,97735.61
2018-05-29T13:58:38.299Z,97731.31
2018-05-29T14:01:06.556Z,97722.44
2018-05-29T14:03:34.805Z,97718.28
2018-05-29T14:06:03.845Z,97715.77
2018-05-29T14:08:32.093Z,97712.88
2018-05-29T14:11:00.350Z,97722.30
2018-05-29T14:13:29.368Z,97725.62
2018-05-29T14:15:57.624Z,97728.36
2018-05-29T14:18:26.645Z,97728.39
2018-05-29T14:20:54.901Z,97719.34
2018-05-29T14:23:23.923Z,97714.78
2018-05-29T14:25:52.802Z,97706.63
2018-05-29T14:28:21.046Z,97708.09
2018-05-29T14:30:50.076Z,97707.66
2018-05-29T14:33:18.329Z,97705.94
2018-05-29T14:35:47.353Z,97711.31
2018-05-29T14:38:15.605Z,97708.91
2018-05-29T14:40:43.868Z,97709.98
2018-05-29T14:43:12.885Z,97702.47
2018-05-29T14:45:41.141Z,97694.66
2018-05-29T14:48:10.162Z,97693.02
2018-05-29T14:50:38.419Z,97705.66
2018-05-29T14:53:06.713Z,97708.21
2018-05-29T14:55:34.971Z,97708.39
2018-05-29T14:58:03.974Z,97711.12
2018-05-29T15:00:32.226Z,97716.09
2018-05-29T15:03:01.244Z,97720.72
2018-05-29T15:05:29.498Z,97720.66
2018-05-29T15:07:58.526Z,97716.77
2018-05-29T15:10:26.779Z,97712.60
2018-05-29T15:12:55.034Z,97707.88
2018-05-29T15:15:24.048Z,97705.56
2018-05-29T15:17:52.311Z,97712.04
2018-05-29T15:20:21.329Z,97704.67
2018-05-29T15:22:49.587Z,97704.44
2018-05-29T15:25:17.846Z,97691.05
2018-05-29T15:27:46.867Z,97679.16
2018-05-29T15:30:15.125Z,97670.00
2018-05-29T15:32:44.156Z,97681.02
2018-05-29T15:35:12.396Z,97671.00
2018-05-29T15:37:40.654Z,97680.31
2018-05-29T15:40:09.673Z,97659.29
2018-05-29T15:42:38.946Z,97659.16
2018-05-29T15:45:07.190Z,97657.39
2018-05-29T15:47:35.445Z,97664.92
2018-05-29T15:50:03.698Z,97673.06
2018-05-29T15:52:31.958Z,97677.92
2018-05-29T15:55:00.974Z,97693.31
2018-05-29T15:57:29.222Z,97706.73
2018-05-29T15:59:57.501Z,97714.16
2018-05-29T16:02:25.726Z,97741.77
2018-05-29T16:04:53.978Z,97733.50
2018-05-29T16:07:22.222Z,97733.44
2018-05-29T16:09:51.246Z,97733.25
2018-05-29T16:12:19.489Z,97738.16
2018-05-29T16:14:48.509Z,97742.78
2018-05-29T16:17:16.761Z,97747.55
2018-05-29T16:19:45.785Z,97743.59
2018-05-29T16:22:14.782Z,97742.08
2018-05-29T16:24:43.042Z,97733.09
2018-05-29T16:27:12.050Z,97730.12
2018-05-29T16:29:40.316Z,97729.88
2018-05-29T16:32:08.565Z,97744.93
2018-05-29T16:34:36.881Z,97762.27
2018-05-29T16:37:05.101Z,97773.52
2018-05-29T16:39:33.370Z,97780.19
2018-05-29T16:42:01.661Z,97783.55
2018-05-29T16:44:29.910Z,97786.89
2018-05-29T16:46:58.154Z,97789.60
2018-05-29T16:49:26.413Z,97798.64
2018-05-29T16:51:55.433Z,97802.09
2018-05-29T16:54:24.852Z,97802.35
2018-05-29T16:56:53.096Z,97793.84
2018-05-29T16:59:21.369Z,97793.39
2018-05-29T17:01:50.798Z,97794.10
2018-05-29T17:04:19.041Z,97795.41
2018-05-29T17:06:47.318Z,97801.34
2018-05-29T17:09:15.807Z,97808.78
2018-05-29T17:11:44.052Z,97811.38
2018-05-29T17:14:13.086Z,97820.52
2018-05-29T17:16:41.347Z,97828.00
2018-05-29T17:19:09.639Z,97834.37
2018-05-29T17:21:37.885Z,97831.48
2018-05-29T17:24:06.903Z,97826.75
2018-05-29T17:26:35.157Z,97827.86
2018-05-29T17:29:04.269Z,97842.84
2018-05-29T17:31:33.553Z,97859.63
2018-05-29T17:34:02.563Z,97870.25
2018-05-29T17:36:30.821Z,97870.27
2018-05-29T17:38:59.833Z,97879.42
2018-05-29T17:41:28.095Z,97884.78
2018-05-29T17:43:57.114Z,97881.92
2018-05-29T17:46:25.371Z,97886.73
2018-05-29T17:48:53.620Z,97882.87
2018-05-29T17:51:22.656Z,97891.36
2018-05-29T17:53:50.912Z,97885.20
2018-05-29T17:56:19.190Z,97887.52
2018-05-29T17:58:48.189Z,97880.77
2018-05-29T18:01:16.436Z,97880.47
2018-05-29T18:03:45.456Z,97877.17
2018-05-29T18:06:13.710Z,97875.94
2018-05-29T18:08:42.734Z,97881.75
2018-05-29T18:11:10.989Z,97877.56
2018-05-29T18:13:39.240Z,97879.83
2018-05-29T18:16:07.503Z,97887.87
2018-05-29T18:18:35.756Z,97890.92
2018-05-29T18:21:04.010Z,97886.33
2018-05-29T18:23:34.371Z,97891.59
2018-05-29T18:26:02.613Z,97890.66
2018-05-29T18:28:30.869Z,97886.38
2018-05-29T18:30:59.880Z,97874.22
2018-05-29T18:33:28.133Z,97880.30
2018-05-29T18:35:56.388Z,97883.23
2018-05-29T18:38:25.470Z,97882.35
2018-05-29T18:40:53.713Z,97888.13
2018-05-29T18:43:22.031Z,97886.25
2018-05-29T18:45:50.285Z,97897.23
2018-05-29T18:48:18.541Z,97924.19
2018-05-29T18:50:46.793Z,97934.89
2018-05-29T18:53:15.060Z,97934.63
2018-05-29T18:55:43.313Z,97945.57
2018-05-29T18:58:12.328Z,97931.74
2018-05-29T19:00:41.106Z,97929.36
2018-05-29T19:03:10.113Z,97923.78
2018-05-29T19:05:38.378Z,97907.83
2018-05-29T19:08:07.386Z,97900.97
2018-05-29T19:10:35.646Z,97897.20
2018-05-29T19:13:04.669Z,97897.05
2018-05-29T19:15:32.917Z,97902.30
2018-05-29T19:18:01.944Z,97900.26
2018-05-29T19:20:30.197Z,97898.19
2018-05-29T19:22:59.389Z,97899.27
2018-05-29T19:25:28.395Z,97903.73
2018-05-29T19:27:56.643Z,97904.28
2018-05-29T19:30:25.661Z,97898.98
2018-05-29T19:32:53.914Z,97899.72
2018-05-29T19:35:22.934Z,97905.15
2018-05-29T19:37:51.187Z,97901.39
2018-05-29T19:40:20.244Z,97898.09
2018-05-29T19:42:48.464Z,97889.54
2018-05-29T19:45:16.729Z,97887.59
2018-05-29T19:47:45.749Z,97883.27
2018-05-29T19:50:14.004Z,97883.70
2018-05-29T19:52:43.021Z,97874.80
2018-05-29T19:55:11.293Z,97874.16
2018-05-29T19:57:39.547Z,97866.95
2018-05-29T20:00:08.577Z,97872.06
2018-05-29T20:02:36.825Z,97874.33
2018-05-29T20:05:05.088Z,97875.31
2018-05-29T20:07:34.158Z,97860.86
2018-05-29T20:10:02.372Z,97857.55
2018-05-29T20:12:30.632Z,97853.80
2018-05-29T20:14:59.649Z,97846.60
2018-05-29T20:17:31.696Z,97852.53
2018-05-29T20:20:00.725Z,97846.78
2018-05-29T20:22:29.692Z,97855.81
2018-05-29T20:24:57.956Z,97851.96
2018-05-29T20:27:26.977Z,97850.64
2018-05-29T20:29:55.248Z,97844.36
2018-05-29T20:32:23.514Z,97852.20
2018-05-29T20:34:51.782Z,97851.61
2018-05-29T20:37:20.804Z,97847.88
2018-05-29T20:39:49.063Z,97847.03
2018-05-29T20:42:17.312Z,97846.66
2018-05-29T20:44:46.329Z,97846.84
2018-05-29T20:47:14.588Z,97848.92
2018-05-29T20:49:43.596Z,97837.44
2018-05-29T20:52:11.865Z,97844.37
2018-05-29T20:54:40.888Z,97838.73
2018-05-29T20:57:09.142Z,97841.61
2018-05-29T20:59:37.385Z,97847.78
2018-05-29T21:02:05.641Z,97846.13
2018-05-29T21:04:33.892Z,97849.61
2018-05-29T21:07:02.249Z,97845.66
2018-05-29T21:09:30.508Z,97855.11
2018-05-29T21:11:59.529Z,97852.95
2018-05-29T21:14:27.785Z,97858.05
2018-05-29T21:16:56.050Z,97857.63
2018-05-29T21:19:25.106Z,97859.50
2018-05-29T21:21:53.349Z,97862.75
2018-05-29T21:24:21.605Z,97859.49
2018-05-29T21:26:49.860Z,97862.80
2018-05-29T21:29:18.888Z,97865.38
2018-05-29T21:31:47.133Z,97869.52
2018-05-29T21:34:16.161Z,97868.03
2018-05-29T21:36:44.405Z,97858.58
2018-05-29T21:39:13.431Z,97866.31
2018-05-29T21:41:41.681Z,97865.80
2018-05-29T21:44:10.699Z,97871.45
2018-05-29T21:46:38.944Z,97873.56
2018-05-29T21:49:07.972Z,97881.60
2018-05-29T21:51:36.229Z,97883.09
2018-05-29T21:54:04.494Z,97883.54
2018-05-29T21:56:33.619Z,97894.80
2018-05-29T21:59:01.865Z,97904.95
2018-05-29T22:01:30.881Z,97902.70
2018-05-29T22:04:04.101Z,97913.06
2018-05-29T22:06:32.360Z,97915.47
2018-05-29T22:09:00.642Z,97919.20
2018-05-29T22:11:28.897Z,97929.14
2018-05-29T22:13:57.173Z,97932.48
2018-05-29T22:16:25.429Z,97934.52
2018-05-29T22:18:54.445Z,97938.66
2018-05-29T22:21:22.701Z,97934.84
2018-05-29T22:23:53.521Z,97927.64
2018-05-29T22:26:22.541Z,97930.74
2018-05-29T22:28:51.421Z,97926.73
2018-05-29T22:31:19.673Z,97931.64
2018-05-29T22:33:47.925Z,97933.29
2018-05-29T22:36:16.176Z,97934.20
2018-05-29T22:38:44.465Z,97934.91
2018-05-29T22:41:12.729Z,97932.54
2018-05-29T22:43:40.985Z,97933.27
2018-05-29T22:46:09.236Z,97935.36
2018-05-29T22:48:39.319Z,97948.82
2018-05-29T22:51:07.568Z,97950.08
2018-05-29T22:53:35.816Z,97952.78
2018-05-29T22:56:04.841Z,97957.23
2018-05-29T22:58:33.096Z,97962.44
2018-05-29T23:01:01.350Z,97964.73
2018-05-29T23:03:30.382Z,97974.03
2018-05-29T23:05:58.627Z,97971.02
2018-05-29T23:08:27.645Z,97972.30
2018-05-29T23:10:55.903Z,97969.54
2018-05-29T23:13:24.162Z,97970.97
2018-05-29T23:15:53.180Z,97971.58
2018-05-29T23:18:21.455Z,97974.55
2018-05-29T23:20:50.462Z,97965.36
2018-05-29T23:23:18.712Z,97973.83
2018-05-29T23:25:46.972Z,97975.64
2018-05-29T23:28:16.007Z,97979.25
2018-05-29T23:30:44.258Z,97980.22
2018-05-29T23:33:13.277Z,97986.97
2018-05-29T23:35:41.526Z,97987.97
2018-05-29T23:38:09.780Z,97991.06
2018-05-29T23:40:38.028Z,97995.94
2018-05-29T23:43:06.285Z,98004.17
2018-05-29T23:45:34.530Z,98000.61
2018-05-29T23:48:02.821Z,98003.77
2018-05-29T23:50:31.072Z,98005.97
2018-05-29T23:53:00.101Z,98003.20
2018-05-29T23:55:28.352Z,98005.06
2018-05-29T23:57:56.650Z,97996.97
